createdAt,value
2018-12-20T00:00:29.447Z,3.60
2018-12-20T00:02:58.657Z,3.52
2018-12-20T00:05:27.798Z,4.33
2018-12-20T00:07:57.473Z,4.30
2018-12-20T00:10:26.671Z,3.58
2018-12-20T00:12:55.792Z,3.25
2018-12-20T00:15:24.959Z,3.30
2018-12-20T00:17:54.599Z,3.05
2018-12-20T00:20:25.181Z,3.85
2018-12-20T00:22:54.294Z,3.67
2018-12-20T00:25:23.426Z,3.62
2018-12-20T00:27:53.424Z,3.25
2018-12-20T00:30:23.395Z,3.60
2018-12-20T00:32:53.498Z,3.75
2018-12-20T00:35:23.776Z,3.58
2018-12-20T00:37:53.061Z,3.33
2018-12-20T00:40:23.108Z,3.15
2018-12-20T00:42:52.702Z,2.75
2018-12-20T00:45:22.312Z,3.15
2018-12-20T00:47:51.684Z,3.62
2018-12-20T00:50:22.034Z,3.37
2018-12-20T00:52:52.807Z,2.90
2018-12-20T00:55:22.483Z,2.80
2018-12-20T00:57:51.580Z,3.50
2018-12-20T01:00:21.752Z,3.20
2018-12-20T01:02:55.229Z,2.67
2018-12-20T01:05:22.058Z,3.42
2018-12-20T01:07:51.590Z,3.12
2018-12-20T01:10:20.939Z,3.10
2018-12-20T01:12:50.238Z,3.33
2018-12-20T01:15:19.720Z,3.40
2018-12-20T01:17:48.932Z,3.08
2018-12-20T01:20:18.300Z,3.20
2018-12-20T01:22:48.992Z,3.47
2018-12-20T01:25:18.656Z,3.30
2018-12-20T01:27:48.966Z,3.25
2018-12-20T01:30:18.675Z,3.30
2018-12-20T01:32:48.683Z,3.67
2018-12-20T01:35:19.296Z,3.58
2018-12-20T01:37:48.594Z,3.33
2018-12-20T01:40:17.718Z,3.52
2018-12-20T01:42:47.061Z,3.12
2018-12-20T01:45:18.546Z,3.12
2018-12-20T01:47:47.643Z,2.92
2018-12-20T01:50:17.778Z,3.27
2018-12-20T01:52:46.893Z,3.33
2018-12-20T01:55:17.466Z,2.83
2018-12-20T01:57:46.838Z,3.00
2018-12-20T02:00:17.062Z,3.00
2018-12-20T02:02:46.908Z,2.80
2018-12-20T02:05:16.156Z,3.10
2018-12-20T02:07:45.278Z,3.22
2018-12-20T02:10:14.456Z,3.33
2018-12-20T02:12:43.616Z,3.20
2018-12-20T02:15:12.797Z,3.02
2018-12-20T02:17:41.969Z,3.10
2018-12-20T02:20:11.510Z,3.15
2018-12-20T02:22:41.545Z,3.35
2018-12-20T02:25:11.570Z,3.22
2018-12-20T02:27:41.817Z,3.10
2018-12-20T02:30:12.835Z,2.95
2018-12-20T02:32:42.588Z,3.15
2018-12-20T02:35:12.292Z,3.08
2018-12-20T02:37:41.369Z,3.58
2018-12-20T02:40:10.565Z,3.12
2018-12-20T02:42:39.909Z,3.50
2018-12-20T02:45:10.990Z,3.22
2018-12-20T02:47:40.285Z,4.00
2018-12-20T02:50:10.665Z,3.37
2018-12-20T02:52:39.855Z,3.17
2018-12-20T02:55:09.911Z,3.58
2018-12-20T02:57:39.196Z,3.30
2018-12-20T03:00:09.348Z,3.02
2018-12-20T03:02:38.488Z,3.22
2018-12-20T03:05:08.092Z,3.58
2018-12-20T03:07:37.354Z,2.98
2018-12-20T03:10:08.156Z,3.37
2018-12-20T03:12:37.472Z,3.35
2018-12-20T03:15:06.900Z,3.25
2018-12-20T03:17:36.093Z,3.37
2018-12-20T03:20:06.920Z,3.27
2018-12-20T03:22:36.780Z,3.45
2018-12-20T03:25:07.374Z,3.37
2018-12-20T03:27:37.904Z,3.20
2018-12-20T03:30:07.982Z,3.37
2018-12-20T03:32:38.021Z,3.75
2018-12-20T03:35:08.628Z,3.10
2018-12-20T03:37:38.972Z,3.30
2018-12-20T03:40:08.290Z,3.40
2018-12-20T03:42:37.676Z,3.33
2018-12-20T03:45:07.434Z,3.47
2018-12-20T03:47:37.150Z,3.77
2018-12-20T03:50:07.663Z,3.90
2018-12-20T03:52:36.767Z,3.90
2018-12-20T03:55:07.167Z,3.37
2018-12-20T03:57:36.200Z,3.37
2018-12-20T04:00:06.698Z,4.17
2018-12-20T04:02:35.756Z,3.30
2018-12-20T04:05:05.879Z,2.85
2018-12-20T04:07:34.976Z,3.50
2018-12-20T04:10:04.653Z,3.58
2018-12-20T04:12:33.830Z,3.52
2018-12-20T04:15:03.042Z,3.58
2018-12-20T04:17:33.078Z,3.20
2018-12-20T04:20:02.915Z,3.58
2018-12-20T04:22:33.479Z,3.40
2018-12-20T04:25:04.003Z,3.55
2018-12-20T04:27:34.202Z,4.03
2018-12-20T04:30:05.111Z,3.33
2018-12-20T04:32:34.463Z,3.50
2018-12-20T04:35:05.092Z,3.42
2018-12-20T04:37:35.407Z,3.47
2018-12-20T04:40:05.072Z,4.03
2018-12-20T04:42:34.305Z,3.35
2018-12-20T04:45:03.862Z,3.42
2018-12-20T04:47:33.302Z,3.52
2018-12-20T04:50:03.580Z,3.92
2018-12-20T04:52:33.393Z,3.50
2018-12-20T04:55:03.487Z,3.60
2018-12-20T04:57:32.609Z,3.27
2018-12-20T05:00:03.131Z,3.40
2018-12-20T05:02:32.255Z,3.60
2018-12-20T05:05:01.380Z,3.45
2018-12-20T05:07:30.508Z,3.50
2018-12-20T05:09:59.839Z,3.40
2018-12-20T05:12:28.956Z,3.17
2018-12-20T05:14:59.027Z,3.55
2018-12-20T05:17:28.087Z,3.50
2018-12-20T05:19:57.946Z,3.35
2018-12-20T05:22:28.240Z,3.70
2018-12-20T05:24:57.346Z,3.33
2018-12-20T05:27:27.678Z,3.10
2018-12-20T05:29:58.062Z,3.55
2018-12-20T05:32:27.601Z,3.42
2018-12-20T05:34:58.253Z,3.58
2018-12-20T05:37:28.596Z,3.37
2018-12-20T05:39:58.557Z,3.67
2018-12-20T05:42:27.640Z,3.50
2018-12-20T05:44:56.803Z,3.20
2018-12-20T05:47:26.059Z,3.12
2018-12-20T05:49:56.380Z,3.58
2018-12-20T05:52:25.487Z,3.52
2018-12-20T05:54:55.394Z,3.22
2018-12-20T05:57:24.632Z,3.02
2018-12-20T05:59:55.325Z,3.22
2018-12-20T06:02:24.451Z,3.12
2018-12-20T06:04:53.594Z,3.27
2018-12-20T06:07:22.760Z,3.60
2018-12-20T06:09:51.873Z,2.67
2018-12-20T06:12:21.815Z,3.55
2018-12-20T06:14:51.534Z,3.50
2018-12-20T06:17:20.613Z,3.33
2018-12-20T06:19:50.244Z,3.35
2018-12-20T06:22:19.639Z,4.50
2018-12-20T06:24:48.753Z,3.37
2018-12-20T06:27:18.571Z,3.70
2018-12-20T06:29:48.652Z,4.00
2018-12-20T06:32:17.777Z,3.90
2018-12-20T06:34:47.668Z,4.40
2018-12-20T06:37:17.548Z,4.33
2018-12-20T06:39:47.415Z,3.60
2018-12-20T06:42:16.540Z,4.03
2018-12-20T06:44:46.433Z,4.40
2018-12-20T06:47:15.677Z,3.52
2018-12-20T06:49:45.878Z,4.17
2018-12-20T06:52:15.154Z,3.95
2018-12-20T06:54:45.281Z,5.12
2018-12-20T06:57:14.564Z,3.70
2018-12-20T06:59:44.456Z,4.35
2018-12-20T07:02:14.672Z,4.35
2018-12-20T07:04:44.444Z,4.37
2018-12-20T07:07:13.544Z,4.12
2018-12-20T07:09:43.712Z,4.40
2018-12-20T07:12:12.780Z,3.83
2018-12-20T07:14:42.108Z,4.30
2018-12-20T07:17:12.328Z,3.33
2018-12-20T07:19:42.566Z,4.33
2018-12-20T07:22:12.476Z,4.25
2018-12-20T07:24:41.571Z,3.62
2018-12-20T07:27:11.647Z,3.83
2018-12-20T07:29:41.598Z,4.70
2018-12-20T07:32:11.526Z,5.70
2018-12-20T07:34:47.732Z,6.03
2018-12-20T07:37:13.105Z,5.60
2018-12-20T07:39:42.817Z,4.80
2018-12-20T07:42:11.912Z,4.65
2018-12-20T07:44:41.144Z,4.40
2018-12-20T07:47:10.259Z,3.85
2018-12-20T07:49:40.340Z,4.42
2018-12-20T07:52:09.467Z,3.42
2018-12-20T07:54:39.419Z,4.03
2018-12-20T07:57:09.691Z,3.70
2018-12-20T07:59:40.114Z,3.67
2018-12-20T08:02:09.357Z,3.12
2018-12-20T08:04:38.439Z,3.27
2018-12-20T08:07:11.356Z,3.12
2018-12-20T08:09:41.035Z,2.83
2018-12-20T08:12:10.325Z,3.10
2018-12-20T08:14:39.379Z,2.85
2018-12-20T08:17:08.587Z,3.52
2018-12-20T08:19:38.384Z,3.20
2018-12-20T08:22:08.114Z,2.72
2018-12-20T08:24:37.156Z,2.62
2018-12-20T08:27:06.252Z,2.95
2018-12-20T08:29:36.154Z,3.27
2018-12-20T08:32:05.231Z,2.55
2018-12-20T08:34:34.888Z,2.58
2018-12-20T08:37:04.902Z,2.90
2018-12-20T08:39:33.967Z,2.75
2018-12-20T08:42:04.029Z,2.62
2018-12-20T08:44:33.532Z,3.30
2018-12-20T08:47:02.680Z,2.77
2018-12-20T08:49:31.818Z,2.90
2018-12-20T08:52:01.404Z,2.40
2018-12-20T08:54:31.655Z,2.35
2018-12-20T08:57:01.325Z,2.55
2018-12-20T08:59:31.808Z,2.45
2018-12-20T09:02:00.900Z,2.85
2018-12-20T09:04:30.874Z,2.42
2018-12-20T09:06:59.961Z,2.62
2018-12-20T09:09:29.068Z,2.60
2018-12-20T09:11:58.371Z,2.58
2018-12-20T09:14:29.057Z,2.12
2018-12-20T09:17:02.866Z,2.70
2018-12-20T09:19:30.194Z,3.02
2018-12-20T09:21:59.529Z,2.75
2018-12-20T09:24:28.727Z,2.52
2018-12-20T09:26:59.037Z,2.65
2018-12-20T09:29:28.919Z,3.08
2018-12-20T09:31:58.032Z,2.08
2018-12-20T09:34:27.863Z,2.60
2018-12-20T09:36:56.967Z,2.47
2018-12-20T09:39:26.815Z,2.33
2018-12-20T09:41:55.912Z,2.40
2018-12-20T09:44:24.996Z,2.75
2018-12-20T09:46:58.364Z,2.47
2018-12-20T09:49:28.044Z,2.98
2018-12-20T09:51:57.637Z,2.70
2018-12-20T09:54:27.948Z,2.58
2018-12-20T09:56:57.072Z,2.27
2018-12-20T09:59:27.113Z,2.40
2018-12-20T10:01:57.410Z,2.30
2018-12-20T10:04:26.786Z,2.52
2018-12-20T10:06:56.029Z,2.45
2018-12-20T10:09:25.118Z,2.45
2018-12-20T10:11:54.341Z,2.90
2018-12-20T10:14:23.635Z,3.20
2018-12-20T10:16:52.817Z,3.22
2018-12-20T10:19:23.495Z,3.58
2018-12-20T10:21:52.566Z,3.10
2018-12-20T10:24:22.523Z,4.08
2018-12-20T10:26:52.303Z,3.83
2018-12-20T10:29:21.452Z,3.08
2018-12-20T10:31:51.059Z,4.08
2018-12-20T10:34:20.798Z,4.25
2018-12-20T10:36:49.857Z,4.20
2018-12-20T10:39:19.452Z,5.50
2018-12-20T10:41:48.507Z,5.00
2018-12-20T10:44:18.229Z,5.45
2018-12-20T10:46:47.399Z,5.08
2018-12-20T10:49:16.460Z,6.17
2018-12-20T10:51:46.670Z,5.62
2018-12-20T10:54:18.114Z,3.95
2018-12-20T10:56:47.632Z,5.25
2018-12-20T10:59:17.535Z,5.37
2018-12-20T11:01:51.679Z,4.40
2018-12-20T11:04:26.135Z,4.95
2018-12-20T11:07:02.316Z,4.60
2018-12-20T11:10:40.602Z,4.75
2018-12-20T11:13:14.987Z,5.15
2018-12-20T11:15:44.097Z,4.72
2018-12-20T11:18:13.278Z,4.03
2018-12-20T11:20:42.496Z,4.75
2018-12-20T11:23:11.792Z,4.35
2018-12-20T11:25:41.793Z,4.08
2018-12-20T11:28:11.777Z,5.22
2018-12-20T11:30:42.290Z,4.95
2018-12-20T11:33:12.481Z,5.70
2018-12-20T11:35:41.655Z,6.30
2018-12-20T11:38:11.579Z,6.37
2018-12-20T11:40:40.803Z,4.97
2018-12-20T11:43:09.848Z,5.87
2018-12-20T11:45:40.361Z,6.47
2018-12-20T11:48:10.160Z,6.67
2018-12-20T11:50:45.430Z,6.50
2018-12-20T11:53:15.280Z,6.70
2018-12-20T11:55:45.215Z,7.03
2018-12-20T11:58:14.872Z,6.65
2018-12-20T12:00:44.667Z,6.45
2018-12-20T12:03:13.745Z,6.45
2018-12-20T12:05:43.156Z,6.50
2018-12-20T12:08:12.659Z,6.33
2018-12-20T12:10:41.707Z,5.95
2018-12-20T12:13:12.098Z,6.35
2018-12-20T12:15:41.333Z,5.87
2018-12-20T12:18:11.072Z,5.50
2018-12-20T12:20:40.283Z,6.53
2018-12-20T12:23:09.880Z,5.80
2018-12-20T12:25:39.833Z,6.53
2018-12-20T12:28:09.317Z,5.97
2018-12-20T12:30:39.856Z,5.12
2018-12-20T12:33:09.694Z,4.70
2018-12-20T12:35:38.777Z,5.15
2018-12-20T12:38:08.250Z,5.10
2018-12-20T12:40:38.648Z,5.58
2018-12-20T12:43:07.872Z,5.85
2018-12-20T12:45:37.681Z,5.28
2018-12-20T12:48:07.765Z,6.72
2018-12-20T12:50:36.970Z,7.33
2018-12-20T12:53:07.031Z,6.53
2018-12-20T12:55:36.999Z,7.10
2018-12-20T12:58:06.368Z,8.03
2018-12-20T13:00:36.975Z,7.33
2018-12-20T13:03:06.038Z,7.45
2018-12-20T13:05:35.128Z,6.92
2018-12-20T13:08:04.741Z,7.15
2018-12-20T13:10:33.831Z,8.23
2018-12-20T13:13:02.996Z,8.15
2018-12-20T13:15:32.357Z,8.25
2018-12-20T13:18:04.571Z,7.80
2018-12-20T13:20:33.774Z,7.62
2018-12-20T13:23:02.999Z,6.55
2018-12-20T13:25:32.200Z,8.63
2018-12-20T13:28:02.171Z,7.70
2018-12-20T13:30:31.624Z,6.70
2018-12-20T13:33:01.240Z,7.05
2018-12-20T13:35:30.431Z,6.87
2018-12-20T13:37:59.530Z,7.62
2018-12-20T13:40:29.903Z,6.40
2018-12-20T13:42:59.165Z,7.10
2018-12-20T13:45:28.323Z,7.72
2018-12-20T13:47:58.288Z,6.85
2018-12-20T13:50:28.094Z,6.35
2018-12-20T13:52:57.861Z,6.55
2018-12-20T13:55:27.714Z,6.42
2018-12-20T13:57:56.963Z,5.83
2018-12-20T14:00:27.225Z,9.05
2018-12-20T14:02:56.843Z,6.78
2018-12-20T14:05:27.563Z,6.78
2018-12-20T14:07:58.925Z,6.80
2018-12-20T14:10:27.783Z,6.72
2018-12-20T14:12:57.795Z,6.97
2018-12-20T14:15:27.547Z,6.70
2018-12-20T14:17:57.400Z,6.17
2018-12-20T14:20:26.616Z,6.17
2018-12-20T14:22:56.509Z,6.75
2018-12-20T14:25:25.672Z,5.70
2018-12-20T14:27:55.052Z,6.20
2018-12-20T14:30:24.859Z,6.45
2018-12-20T14:32:54.794Z,5.47
2018-12-20T14:35:23.881Z,6.00
2018-12-20T14:37:52.974Z,5.40
2018-12-20T14:40:22.700Z,5.65
2018-12-20T14:42:52.415Z,5.45
2018-12-20T14:45:22.276Z,4.97
2018-12-20T14:47:52.768Z,4.95
2018-12-20T14:50:22.896Z,4.97
2018-12-20T14:52:52.965Z,4.78
2018-12-20T14:55:22.908Z,4.90
2018-12-20T14:57:52.331Z,5.37
2018-12-20T15:00:21.805Z,4.40
2018-12-20T15:02:50.993Z,4.47
2018-12-20T15:05:20.104Z,5.08
2018-12-20T15:07:50.184Z,4.85
2018-12-20T15:10:19.299Z,4.58
2018-12-20T15:12:48.437Z,3.85
2018-12-20T15:15:17.924Z,4.25
2018-12-20T15:17:48.248Z,4.62
2018-12-20T15:20:17.322Z,4.47
2018-12-20T15:22:46.371Z,4.05
2018-12-20T15:25:15.545Z,3.95
2018-12-20T15:27:46.004Z,4.20
2018-12-20T15:30:16.466Z,4.15
2018-12-20T15:32:45.561Z,4.17
2018-12-20T15:35:15.291Z,4.75
2018-12-20T15:37:45.003Z,4.22
2018-12-20T15:40:15.167Z,4.35
2018-12-20T15:42:44.932Z,3.83
2018-12-20T15:45:14.781Z,3.60
2018-12-20T15:47:44.427Z,3.55
2018-12-20T15:50:13.561Z,4.05
2018-12-20T15:52:43.393Z,3.80
2018-12-20T15:55:13.547Z,3.62
2018-12-20T15:57:42.648Z,4.42
2018-12-20T16:00:12.843Z,3.47
2018-12-20T16:02:42.073Z,3.25
2018-12-20T16:05:11.243Z,3.35
2018-12-20T16:07:40.832Z,3.45
2018-12-20T16:10:11.231Z,4.08
2018-12-20T16:12:40.367Z,3.20
2018-12-20T16:15:10.371Z,3.70
2018-12-20T16:17:40.459Z,3.20
2018-12-20T16:20:09.563Z,3.35
2018-12-20T16:22:38.635Z,3.17
2018-12-20T16:25:08.666Z,2.80
2018-12-20T16:27:38.051Z,3.05
2018-12-20T16:30:10.226Z,3.35
2018-12-20T16:32:40.478Z,3.17
2018-12-20T16:35:10.211Z,2.83
2018-12-20T16:37:39.397Z,3.40
2018-12-20T16:40:09.317Z,2.92
2018-12-20T16:42:38.829Z,3.67
2018-12-20T16:45:08.365Z,2.70
2018-12-20T16:47:38.247Z,3.05
2018-12-20T16:50:09.087Z,2.87
2018-12-20T16:52:38.220Z,3.42
2018-12-20T16:55:08.832Z,2.70
2018-12-20T16:57:37.970Z,2.98
2018-12-20T17:00:09.179Z,2.87
2018-12-20T17:02:38.260Z,3.00
2018-12-20T17:05:07.692Z,2.83
2018-12-20T17:07:37.992Z,2.80
2018-12-20T17:10:08.056Z,2.60
2018-12-20T17:12:37.147Z,2.27
2018-12-20T17:15:08.804Z,2.77
2018-12-20T17:17:37.839Z,2.12
2018-12-20T17:20:07.818Z,2.52
2018-12-20T17:22:36.973Z,2.25
2018-12-20T17:25:07.067Z,2.20
2018-12-20T17:27:36.189Z,2.20
2018-12-20T17:30:07.997Z,2.35
2018-12-20T17:32:37.132Z,2.05
2018-12-20T17:35:07.255Z,2.20
2018-12-20T17:37:36.417Z,2.42
2018-12-20T17:40:06.968Z,2.25
2018-12-20T17:42:36.069Z,2.33
2018-12-20T17:45:07.504Z,1.77
2018-12-20T17:47:36.935Z,1.92
2018-12-20T17:50:07.105Z,2.27
2018-12-20T17:52:36.183Z,2.00
2018-12-20T17:55:06.052Z,2.58
2018-12-20T17:57:35.110Z,2.17
2018-12-20T18:00:06.775Z,2.22
2018-12-20T18:02:35.884Z,2.10
2018-12-20T18:05:07.156Z,2.75
2018-12-20T18:07:36.899Z,3.02
2018-12-20T18:10:09.272Z,2.83
2018-12-20T18:12:39.453Z,3.08
2018-12-20T18:15:10.843Z,3.25
2018-12-20T18:17:40.173Z,2.55
2018-12-20T18:20:10.583Z,2.98
2018-12-20T18:22:39.780Z,3.52
2018-12-20T18:25:08.948Z,2.85
2018-12-20T18:27:38.048Z,2.37
2018-12-20T18:30:10.528Z,2.70
2018-12-20T18:32:39.633Z,2.83
2018-12-20T18:35:09.588Z,3.25
2018-12-20T18:37:39.129Z,3.17
2018-12-20T18:40:09.342Z,3.27
2018-12-20T18:42:39.225Z,3.00
2018-12-20T18:45:08.892Z,2.67
2018-12-20T18:47:38.484Z,2.60
2018-12-20T18:50:09.552Z,3.00
2018-12-20T18:52:38.672Z,2.20
2018-12-20T18:55:08.587Z,3.00
2018-12-20T18:57:37.741Z,2.95
2018-12-20T19:00:09.031Z,2.55
2018-12-20T19:02:39.542Z,3.20
2018-12-20T19:05:08.836Z,2.98
2018-12-20T19:07:38.694Z,2.72
2018-12-20T19:10:09.448Z,3.15
2018-12-20T19:12:38.580Z,3.30
2018-12-20T19:15:09.348Z,3.08
2018-12-20T19:17:38.528Z,2.85
2018-12-20T19:20:16.039Z,3.42
2018-12-20T19:22:40.267Z,3.75
2018-12-20T19:25:09.365Z,3.35
2018-12-20T19:27:39.337Z,3.10
2018-12-20T19:30:10.792Z,3.42
2018-12-20T19:32:39.894Z,3.05
2018-12-20T19:35:09.609Z,2.50
2018-12-20T19:37:38.759Z,3.12
2018-12-20T19:40:10.241Z,2.92
2018-12-20T19:42:40.107Z,2.87
2018-12-20T19:45:09.396Z,3.47
2018-12-20T19:47:39.393Z,3.27
2018-12-20T19:50:09.982Z,3.60
2018-12-20T19:52:40.311Z,2.45
2018-12-20T19:55:09.868Z,3.25
2018-12-20T19:57:39.611Z,3.40
2018-12-20T20:00:12.895Z,3.02
2018-12-20T20:02:41.970Z,3.35
2018-12-20T20:05:11.099Z,2.75
2018-12-20T20:07:41.057Z,3.08
2018-12-20T20:10:12.032Z,3.80
2018-12-20T20:12:41.116Z,2.62
2018-12-20T20:15:16.359Z,2.98
2018-12-20T20:17:43.614Z,2.83
2018-12-20T20:20:14.227Z,3.20
2018-12-20T20:22:43.588Z,2.83
2018-12-20T20:25:12.748Z,2.83
2018-12-20T20:27:43.296Z,2.47
2018-12-20T20:30:15.288Z,2.80
2018-12-20T20:32:44.351Z,2.45
2018-12-20T20:35:14.034Z,2.70
2018-12-20T20:37:43.847Z,2.35
2018-12-20T20:40:13.011Z,2.90
2018-12-20T20:42:42.521Z,2.45
2018-12-20T20:45:11.809Z,2.52
2018-12-20T20:47:41.681Z,2.40
2018-12-20T20:50:10.761Z,2.35
2018-12-20T20:52:41.028Z,3.17
2018-12-20T20:55:11.258Z,2.20
2018-12-20T20:57:40.419Z,2.20
2018-12-20T21:00:12.558Z,3.00
2018-12-20T21:02:42.851Z,1.95
2018-12-20T21:05:12.909Z,2.15
2018-12-20T21:07:43.181Z,2.27
2018-12-20T21:10:13.012Z,2.45
2018-12-20T21:12:42.076Z,2.37
2018-12-20T21:15:12.951Z,2.37
2018-12-20T21:17:42.798Z,2.17
2018-12-20T21:20:13.530Z,2.65
2018-12-20T21:22:42.618Z,2.40
2018-12-20T21:25:11.855Z,2.15
2018-12-20T21:27:41.094Z,2.08
2018-12-20T21:30:11.224Z,2.55
2018-12-20T21:32:40.311Z,2.25
2018-12-20T21:35:10.087Z,2.70
2018-12-20T21:37:39.268Z,2.25
2018-12-20T21:40:09.038Z,1.92
2018-12-20T21:42:38.840Z,2.30
2018-12-20T21:45:09.026Z,2.58
2018-12-20T21:47:38.855Z,1.72
2018-12-20T21:50:10.916Z,3.20
2018-12-20T21:52:40.220Z,2.08
2018-12-20T21:55:11.305Z,2.40
2018-12-20T21:57:40.711Z,1.67
2018-12-20T22:00:10.941Z,2.02
2018-12-20T22:02:40.323Z,2.50
2018-12-20T22:05:10.415Z,2.30
2018-12-20T22:07:40.135Z,1.87
2018-12-20T22:10:10.665Z,1.82
2018-12-20T22:12:39.763Z,1.70
2018-12-20T22:15:09.453Z,1.80
2018-12-20T22:17:38.502Z,1.70
2018-12-20T22:20:08.093Z,2.02
2018-12-20T22:22:37.192Z,1.90
2018-12-20T22:25:07.340Z,1.95
2018-12-20T22:27:36.523Z,1.72
2018-12-20T22:30:08.913Z,2.00
2018-12-20T22:32:38.452Z,2.25
2018-12-20T22:35:08.772Z,1.75
2018-12-20T22:37:38.576Z,1.77
2018-12-20T22:40:08.300Z,2.10
2018-12-20T22:42:38.172Z,1.55
2018-12-20T22:45:09.656Z,1.70
2018-12-20T22:47:39.397Z,1.70
2018-12-20T22:50:10.066Z,1.75
2018-12-20T22:52:39.729Z,1.60
2018-12-20T22:55:09.472Z,1.62
2018-12-20T22:57:38.564Z,1.90
2018-12-20T23:00:12.208Z,1.90
2018-12-20T23:02:42.100Z,2.00
2018-12-20T23:05:11.169Z,1.60
2018-12-20T23:07:40.655Z,1.70
2018-12-20T23:10:09.969Z,1.70
2018-12-20T23:12:39.924Z,1.67
2018-12-20T23:15:09.871Z,1.70
2018-12-20T23:17:39.021Z,1.90
2018-12-20T23:20:09.285Z,1.60
2018-12-20T23:22:38.412Z,1.45
2018-12-20T23:25:08.279Z,1.67
2018-12-20T23:27:37.429Z,1.50
2018-12-20T23:30:07.959Z,1.70
2018-12-20T23:32:37.695Z,1.77
2018-12-20T23:35:07.568Z,1.70
2018-12-20T23:37:36.643Z,1.70
2018-12-20T23:40:05.913Z,1.42
2018-12-20T23:42:35.599Z,1.70
2018-12-20T23:45:04.897Z,1.70
2018-12-20T23:47:34.393Z,1.52
2018-12-20T23:50:05.603Z,1.57
2018-12-20T23:52:34.801Z,1.57
2018-12-20T23:55:05.018Z,1.65
2018-12-20T23:57:34.856Z,2.22
